Time;durP1;ratioP1;P1;durP2;ratioP2;P2;SDS_P1;SDS_P2;PMS_P1;PMS_P2;Temp;Humidity;BMP_temperature;BMP_pressure;BME280_temperature;BME280_humidity;BME280_pressure;Samples;Min_cycle;Max_cycle;Signal;HPM_P1;HPM_P2
2021/04/09 00:01:46;;;;;;;38.13;20.88;;;-1.70;99.90;;;;;;5090908;28;20115;-72
2021/04/09 00:04:13;;;;;;;39.67;18.33;;;-1.70;99.90;;;;;;5090901;28;20504;-72
2021/04/09 00:06:39;;;;;;;30.95;18.10;;;-1.80;99.90;;;;;;5091055;28;20035;-72
2021/04/09 00:09:06;;;;;;;32.45;17.45;;;-1.80;99.90;;;;;;5091027;28;20021;-72
2021/04/09 00:11:32;;;;;;;33.88;18.83;;;-1.90;99.90;;;;;;5090941;28;20034;-72
2021/04/09 00:13:58;;;;;;;30.33;17.50;;;-1.90;99.90;;;;;;5090833;28;20536;-72
2021/04/09 00:16:23;;;;;;;35.13;20.17;;;-1.90;99.90;;;;;;5092015;28;20027;-72
2021/04/09 00:18:49;;;;;;;34.05;19.80;;;-2.00;99.90;;;;;;5090793;28;20039;-72
2021/04/09 00:21:14;;;;;;;41.05;21.88;;;-1.90;99.90;;;;;;5090572;28;20046;-72
2021/04/09 00:23:40;;;;;;;36.05;20.58;;;-1.90;99.90;;;;;;5090631;28;20089;-72
2021/04/09 00:26:06;;;;;;;29.60;19.13;;;-1.90;99.90;;;;;;5090444;28;20028;-72
2021/04/09 00:28:31;;;;;;;33.20;20.98;;;-1.90;99.90;;;;;;5090603;28;20024;-72
2021/04/09 00:30:57;;;;;;;35.33;20.13;;;-1.90;99.90;;;;;;5090772;28;20028;-72
2021/04/09 00:33:22;;;;;;;32.40;20.58;;;-1.90;99.90;;;;;;5090434;28;20020;-73
2021/04/09 00:35:48;;;;;;;36.13;20.58;;;-1.90;99.90;;;;;;5090289;28;20462;-72
2021/04/09 00:38:14;;;;;;;34.22;19.65;;;-1.90;99.90;;;;;;5089265;28;20568;-72
2021/04/09 00:40:40;;;;;;;37.78;21.05;;;-2.00;99.90;;;;;;5090137;28;20398;-72
2021/04/09 00:43:07;;;;;;;35.95;19.13;;;-2.00;99.90;;;;;;5090349;28;20020;-73
2021/04/09 00:45:37;;;;;;;35.50;20.67;;;-2.00;99.90;;;;;;5090148;28;20020;-73
2021/04/09 00:48:06;;;;;;;36.10;20.20;;;-2.00;99.90;;;;;;5090158;28;20131;-72
2021/04/09 00:50:33;;;;;;;30.25;17.77;;;-2.00;99.90;;;;;;5090392;28;20167;-72
2021/04/09 00:53:00;;;;;;;31.83;18.42;;;-2.10;99.90;;;;;;5090093;28;20050;-73
2021/04/09 00:55:27;;;;;;;35.17;18.70;;;-2.10;99.90;;;;;;5090352;28;20034;-73
2021/04/09 00:57:55;;;;;;;36.67;19.55;;;-2.10;99.90;;;;;;5090132;28;20032;-73
2021/04/09 01:00:21;;;;;;;31.40;19.73;;;-2.10;99.90;;;;;;5090279;28;20111;-71
2021/04/09 01:02:47;;;;;;;35.63;19.60;;;-2.10;99.90;;;;;;5090156;28;20044;-73
2021/04/09 01:05:15;;;;;;;35.33;21.13;;;-2.10;99.90;;;;;;5089742;28;20048;-74
2021/04/09 01:07:41;;;;;;;33.67;18.65;;;-2.10;99.90;;;;;;5089761;28;20478;-72
2021/04/09 01:10:10;;;;;;;35.20;20.95;;;-2.10;99.90;;;;;;5090080;28;20374;-74
2021/04/09 01:12:35;;;;;;;34.80;20.50;;;-2.10;99.90;;;;;;5089785;28;20037;-71
2021/04/09 01:15:02;;;;;;;35.33;21.25;;;-2.10;99.90;;;;;;5089669;28;20058;-73
2021/04/09 01:17:43;;;;;;;35.63;20.13;;;-2.10;99.90;;;;;;5089526;28;20079;-72
2021/04/09 01:20:27;;;;;;;38.92;21.23;;;-2.00;99.90;;;;;;5089527;28;20505;-73
2021/04/09 01:23:13;;;;;;;39.60;22.15;;;-2.10;99.90;;;;;;5089737;28;20393;-71
2021/04/09 01:25:57;;;;;;;34.42;20.30;;;-2.00;99.90;;;;;;5088886;28;20028;-73
2021/04/09 01:28:30;;;;;;;33.17;20.40;;;-2.00;99.90;;;;;;5089430;28;20564;-71
2021/04/09 01:31:20;;;;;;;35.13;20.10;;;-2.00;99.90;;;;;;5089334;28;20024;-71
2021/04/09 01:33:51;;;;;;;34.00;20.25;;;-2.00;99.90;;;;;;5089260;28;20032;-72
2021/04/09 01:36:25;;;;;;;34.25;22.15;;;-2.00;99.90;;;;;;5089092;28;20464;-71
2021/04/09 01:39:13;;;;;;;37.75;21.23;;;-2.00;99.90;;;;;;5089263;28;20024;-72
2021/04/09 01:41:40;;;;;;;32.20;20.63;;;-2.00;99.90;;;;;;5089044;28;20028;-71
2021/04/09 01:44:09;;;;;;;39.28;22.98;;;-2.00;99.90;;;;;;5089092;28;20024;-72
2021/04/09 01:46:37;;;;;;;42.45;22.88;;;-2.00;99.90;;;;;;5089041;28;20024;-74
2021/04/09 01:49:03;;;;;;;36.72;21.63;;;-2.00;99.90;;;;;;5088913;28;20401;-71
2021/04/09 01:51:31;;;;;;;35.47;20.75;;;-2.00;99.90;;;;;;5088617;28;20027;-71
2021/04/09 01:53:56;;;;;;;39.28;21.25;;;-1.90;99.90;;;;;;5089289;28;20396;-71
2021/04/09 01:56:24;;;;;;;38.28;21.45;;;-1.90;99.90;;;;;;5088726;28;20032;-71
2021/04/09 01:58:50;;;;;;;39.17;21.65;;;-1.90;99.90;;;;;;5088876;28;20035;-72
2021/04/09 02:01:18;;;;;;;44.78;25.00;;;-1.90;99.90;;;;;;5088751;28;20032;-73
2021/04/09 02:03:46;;;;;;;46.50;26.15;;;-1.90;99.90;;;;;;5088750;28;20027;-73
2021/04/09 02:06:14;;;;;;;50.00;25.40;;;-1.80;99.90;;;;;;5088638;28;20051;-73
2021/04/09 02:08:40;;;;;;;54.17;27.45;;;-1.80;99.90;;;;;;5088612;28;20386;-73
2021/04/09 02:11:07;;;;;;;47.20;25.60;;;-1.70;99.90;;;;;;5088689;28;20393;-73
2021/04/09 02:13:35;;;;;;;51.35;26.98;;;-1.70;99.90;;;;;;5088516;28;20123;-71
2021/04/09 02:16:01;;;;;;;47.10;24.85;;;-1.70;99.90;;;;;;5088512;28;20229;-73
2021/04/09 02:18:28;;;;;;;43.10;24.75;;;-1.70;99.90;;;;;;5088439;28;20119;-71
2021/04/09 02:21:00;;;;;;;46.95;26.63;;;-1.70;99.90;;;;;;5088393;28;20114;-72
2021/04/09 02:23:27;;;;;;;36.55;20.95;;;-1.80;99.90;;;;;;5088433;28;20399;-73
2021/04/09 02:25:57;;;;;;;43.25;25.75;;;-1.70;99.90;;;;;;5088349;28;20154;-73
2021/04/09 02:28:23;;;;;;;48.60;26.27;;;-1.80;99.90;;;;;;5088335;28;20031;-71
2021/04/09 02:31:02;;;;;;;43.35;25.45;;;-1.80;99.90;;;;;;5088288;28;20485;-73
2021/04/09 02:33:30;;;;;;;41.42;22.65;;;-1.80;99.90;;;;;;5088202;28;20024;-73
2021/04/09 02:35:55;;;;;;;41.25;23.17;;;-1.90;99.90;;;;;;5088129;28;20032;-73
2021/04/09 02:38:21;;;;;;;43.97;24.65;;;-2.00;99.90;;;;;;5088283;28;20148;-74
2021/04/09 02:40:50;;;;;;;44.42;25.00;;;-2.00;99.90;;;;;;5089573;28;20024;-73
2021/04/09 02:43:15;;;;;;;44.03;24.27;;;-2.00;99.90;;;;;;5088307;28;20020;-74
2021/04/09 02:45:41;;;;;;;51.60;26.98;;;-2.00;99.90;;;;;;5089477;28;20051;-74
2021/04/09 02:48:11;;;;;;;55.25;27.52;;;-2.10;99.90;;;;;;5088256;28;20048;-73
2021/04/09 02:50:42;;;;;;;51.63;26.55;;;-2.10;99.90;;;;;;5088307;28;20097;-74
2021/04/09 02:53:16;;;;;;;54.60;27.13;;;-2.10;99.90;;;;;;5088618;28;20466;-73
2021/04/09 02:55:45;;;;;;;56.20;27.65;;;-2.10;99.90;;;;;;5088166;28;20028;-73
2021/04/09 02:58:13;;;;;;;57.30;28.92;;;-2.10;99.90;;;;;;5088428;28;20024;-73
2021/04/09 03:00:44;;;;;;;52.55;27.02;;;-2.10;99.90;;;;;;5088194;28;20024;-74
2021/04/09 03:03:11;;;;;;;53.35;27.77;;;-2.10;99.90;;;;;;5091491;28;20024;-73
2021/04/09 03:05:39;;;;;;;60.70;27.40;;;-2.10;99.90;;;;;;5092327;28;20111;-74
2021/04/09 03:08:05;;;;;;;45.97;25.40;;;-2.20;99.90;;;;;;5092272;28;20401;-73
2021/04/09 03:10:30;;;;;;;56.17;28.42;;;-2.20;99.90;;;;;;5092428;28;20114;-73
2021/04/09 03:12:56;;;;;;;51.50;27.40;;;-2.20;99.90;;;;;;5093830;28;20085;-73
2021/04/09 03:15:24;;;;;;;53.30;27.85;;;-2.20;99.90;;;;;;5092149;28;20034;-73
2021/04/09 03:18:05;;;;;;;50.45;25.83;;;-2.20;99.90;;;;;;5092473;28;20035;-74
2021/04/09 03:20:31;;;;;;;46.85;24.85;;;-2.30;99.90;;;;;;5092121;28;20024;-73
2021/04/09 03:22:57;;;;;;;41.58;23.48;;;-2.30;99.90;;;;;;5093512;28;20028;-73
2021/04/09 03:25:22;;;;;;;41.05;22.75;;;-2.40;99.90;;;;;;5092151;28;20031;-73
2021/04/09 03:27:48;;;;;;;43.65;24.30;;;-2.40;99.90;;;;;;5091768;28;20020;-73
2021/04/09 03:30:15;;;;;;;44.65;24.77;;;-2.50;99.90;;;;;;5091772;28;20069;-73
2021/04/09 03:32:41;;;;;;;39.97;23.92;;;-2.40;99.90;;;;;;5091588;28;20032;-73
2021/04/09 03:35:07;;;;;;;47.67;25.80;;;-2.40;99.90;;;;;;5091518;28;20512;-73
2021/04/09 03:37:33;;;;;;;40.13;23.35;;;-2.40;99.90;;;;;;5091642;28;20119;-73
2021/04/09 03:39:59;;;;;;;47.88;25.88;;;-2.50;99.90;;;;;;5091474;28;20107;-73
2021/04/09 03:42:24;;;;;;;39.13;24.58;;;-2.50;99.90;;;;;;5091579;28;20070;-73
2021/04/09 03:44:50;;;;;;;48.55;26.00;;;-2.40;99.90;;;;;;5091443;28;20473;-74
2021/04/09 03:47:15;;;;;;;45.00;24.27;;;-2.50;99.90;;;;;;5091533;28;20059;-73
2021/04/09 03:49:41;;;;;;;48.90;27.27;;;-2.50;99.90;;;;;;5091563;28;20024;-73
2021/04/09 03:52:07;;;;;;;47.65;25.02;;;-2.50;99.90;;;;;;5091468;28;20498;-73
2021/04/09 03:54:32;;;;;;;44.75;26.10;;;-2.50;99.90;;;;;;5091292;28;20024;-73
2021/04/09 03:56:58;;;;;;;49.05;26.70;;;-2.50;99.90;;;;;;5092621;28;20132;-73
2021/04/09 03:59:23;;;;;;;51.05;27.45;;;-2.50;99.90;;;;;;5091366;28;20015;-73
2021/04/09 04:01:49;;;;;;;44.65;25.63;;;-2.50;99.90;;;;;;5091231;28;20489;-73
2021/04/09 04:04:15;;;;;;;43.13;25.23;;;-2.60;99.90;;;;;;5091218;28;20073;-73
2021/04/09 04:06:40;;;;;;;46.67;25.00;;;-2.70;99.90;;;;;;5091248;28;20024;-73
2021/04/09 04:09:06;;;;;;;47.10;25.67;;;-2.70;99.90;;;;;;5091181;28;20527;-73
2021/04/09 04:11:32;;;;;;;47.60;25.65;;;-2.70;99.90;;;;;;5091098;28;20032;-73
2021/04/09 04:13:57;;;;;;;47.40;25.33;;;-2.60;99.90;;;;;;5091041;28;20496;-73
2021/04/09 04:16:23;;;;;;;45.53;26.10;;;-2.70;99.90;;;;;;5090845;28;20481;-73
2021/04/09 04:18:49;;;;;;;47.25;26.40;;;-2.60;99.90;;;;;;5090962;28;20093;-74
2021/04/09 04:21:14;;;;;;;46.63;26.10;;;-2.60;99.90;;;;;;5090781;28;20030;-74
2021/04/09 04:23:40;;;;;;;52.20;26.33;;;-2.60;99.90;;;;;;5090729;28;20436;-73
2021/04/09 04:26:05;;;;;;;43.70;25.30;;;-2.60;99.90;;;;;;5090653;28;20458;-73
2021/04/09 04:28:31;;;;;;;48.13;25.65;;;-2.60;99.90;;;;;;5090702;28;20024;-73
2021/04/09 04:30:58;;;;;;;55.40;26.75;;;-2.50;99.90;;;;;;5090631;28;20529;-73
2021/04/09 04:33:24;;;;;;;44.22;25.20;;;-2.50;99.90;;;;;;5090641;28;20020;-73
2021/04/09 04:35:50;;;;;;;49.28;26.35;;;-2.50;99.90;;;;;;5090662;28;20028;-73
2021/04/09 04:38:20;;;;;;;49.38;25.88;;;-2.50;99.90;;;;;;5091035;28;20027;-74
2021/04/09 04:40:46;;;;;;;48.10;25.98;;;-2.60;99.90;;;;;;5091200;28;20115;-73
2021/04/09 04:43:12;;;;;;;50.00;26.80;;;-2.50;99.90;;;;;;5090564;28;20034;-74
2021/04/09 04:45:38;;;;;;;48.85;24.40;;;-2.50;99.90;;;;;;5090291;28;20486;-73
2021/04/09 04:48:06;;;;;;;42.22;23.65;;;-2.50;99.90;;;;;;5090383;28;20069;-73
2021/04/09 04:50:32;;;;;;;40.72;23.35;;;-2.50;99.90;;;;;;5091781;28;20024;-74
2021/04/09 04:52:57;;;;;;;41.38;24.02;;;-2.40;99.90;;;;;;5090322;28;20058;-74
2021/04/09 04:55:23;;;;;;;41.90;24.33;;;-2.40;99.90;;;;;;5091423;28;20052;-74
2021/04/09 04:57:49;;;;;;;44.70;23.15;;;-2.40;99.90;;;;;;5090151;28;20052;-73
2021/04/09 05:00:15;;;;;;;50.65;24.95;;;-2.40;99.90;;;;;;5090013;28;20035;-74
2021/04/09 05:02:40;;;;;;;42.85;22.90;;;-2.40;99.90;;;;;;5091236;28;20016;-73
2021/04/09 05:05:07;;;;;;;43.03;23.83;;;-2.30;99.90;;;;;;5090050;28;20020;-74
2021/04/09 05:07:32;;;;;;;42.00;21.95;;;-2.20;99.90;;;;;;5090968;28;20396;-73
2021/04/09 05:09:58;;;;;;;42.03;23.48;;;-2.20;99.90;;;;;;5089898;28;20110;-73
2021/04/09 05:12:24;;;;;;;40.53;22.73;;;-2.10;99.90;;;;;;5089862;28;20035;-73
2021/04/09 05:14:53;;;;;;;37.03;21.90;;;-2.00;99.90;;;;;;5089631;28;20024;-73
2021/04/09 05:17:20;;;;;;;42.00;22.95;;;-2.00;99.90;;;;;;5089716;28;20442;-73
2021/04/09 05:19:45;;;;;;;42.05;24.23;;;-1.90;99.90;;;;;;5089677;28;20039;-73
2021/04/09 05:22:11;;;;;;;41.42;22.95;;;-1.90;99.90;;;;;;5089759;28;20020;-74
2021/04/09 05:24:37;;;;;;;40.85;24.23;;;-1.80;99.90;;;;;;5088711;28;20477;-74
2021/04/09 05:27:03;;;;;;;39.78;22.73;;;-1.80;99.90;;;;;;5089647;28;20028;-73
2021/04/09 05:29:29;;;;;;;49.60;25.85;;;-1.70;99.90;;;;;;5089519;28;20050;-73
2021/04/09 05:31:55;;;;;;;51.45;27.52;;;-1.60;99.90;;;;;;5089459;28;20028;-73
2021/04/09 05:34:20;;;;;;;51.03;28.95;;;-1.50;99.90;;;;;;5089207;28;20504;-73
2021/04/09 05:36:46;;;;;;;46.42;25.80;;;-1.40;99.90;;;;;;5112473;22;20052;-74
2021/04/09 05:39:11;;;;;;;45.00;24.48;;;-1.30;99.90;;;;;;5089324;28;20016;-74
2021/04/09 05:41:37;;;;;;;42.65;24.75;;;-1.10;99.90;;;;;;5089198;28;20034;-74
2021/04/09 05:44:03;;;;;;;37.55;21.85;;;-1.00;99.90;;;;;;5089183;28;20054;-73
2021/04/09 05:46:29;;;;;;;36.20;21.15;;;-0.90;99.90;;;;;;5089028;28;20081;-73
2021/04/09 05:48:55;;;;;;;34.28;20.70;;;-0.70;99.90;;;;;;5090559;28;20024;-75
2021/04/09 05:51:21;;;;;;;37.13;20.42;;;-0.60;99.90;;;;;;5089282;28;20114;-74
2021/04/09 05:53:46;;;;;;;32.38;19.10;;;-0.50;99.90;;;;;;5089047;28;20028;-75
2021/04/09 05:56:12;;;;;;;31.13;19.08;;;-0.40;99.90;;;;;;5089160;28;20031;-74
2021/04/09 05:58:38;;;;;;;29.42;17.58;;;-0.30;99.90;;;;;;5089144;28;20473;-74
2021/04/09 06:01:04;;;;;;;24.77;16.30;;;-0.10;99.90;;;;;;5089007;28;20028;-74
2021/04/09 06:03:29;;;;;;;26.02;15.35;;;0.00;99.90;;;;;;5089216;28;20016;-74
2021/04/09 06:05:55;;;;;;;30.90;16.45;;;0.10;99.90;;;;;;5089022;28;20063;-74
2021/04/09 06:08:21;;;;;;;27.63;16.67;;;0.30;99.90;;;;;;5090355;28;20035;-75
2021/04/09 06:10:47;;;;;;;28.10;15.73;;;0.40;99.90;;;;;;5088894;28;20020;-74
2021/04/09 06:13:12;;;;;;;25.58;15.88;;;0.60;99.90;;;;;;5089008;28;20026;-75
2021/04/09 06:15:38;;;;;;;24.33;14.90;;;0.70;99.90;;;;;;5088744;28;20033;-75
2021/04/09 06:18:04;;;;;;;21.02;13.70;;;0.90;99.90;;;;;;5089174;28;20059;-75
2021/04/09 06:20:30;;;;;;;22.42;14.43;;;1.00;99.90;;;;;;5089054;28;20034;-75
2021/04/09 06:22:55;;;;;;;22.30;13.05;;;1.20;99.90;;;;;;5088979;28;20024;-75
2021/04/09 06:25:21;;;;;;;20.67;12.05;;;1.40;99.90;;;;;;5089075;28;20019;-75
2021/04/09 06:27:47;;;;;;;20.25;12.27;;;1.60;99.90;;;;;;5089105;28;20024;-76
2021/04/09 06:30:14;;;;;;;23.38;12.88;;;1.70;99.90;;;;;;5088773;28;20020;-74
2021/04/09 06:32:39;;;;;;;19.27;12.60;;;1.90;99.90;;;;;;5088811;28;20050;-75
2021/04/09 06:35:06;;;;;;;18.02;12.25;;;2.00;99.90;;;;;;5088437;28;20089;-74
2021/04/09 06:37:31;;;;;;;19.27;11.20;;;2.20;99.90;;;;;;5088578;28;20024;-74
2021/04/09 06:39:57;;;;;;;18.55;11.57;;;2.30;99.90;;;;;;5088506;28;20136;-74
2021/04/09 06:42:23;;;;;;;15.95;11.07;;;2.30;99.90;;;;;;5088438;28;20393;-74
2021/04/09 06:44:49;;;;;;;17.20;10.90;;;2.50;99.90;;;;;;5088376;28;20066;-76
2021/04/09 06:47:17;;;;;;;15.75;9.95;;;2.60;99.90;;;;;;5088565;28;20016;-74
2021/04/09 06:49:43;;;;;;;15.82;10.70;;;2.70;99.90;;;;;;5088548;28;20032;-75
2021/04/09 06:52:13;;;;;;;15.60;10.13;;;2.80;99.90;;;;;;5088573;28;20027;-74
2021/04/09 06:54:41;;;;;;;16.25;9.30;;;2.90;99.90;;;;;;5088312;28;20024;-75
2021/04/09 06:57:09;;;;;;;14.90;9.20;;;3.00;99.90;;;;;;5088270;28;20375;-74
2021/04/09 06:59:41;;;;;;;12.43;8.25;;;3.00;99.90;;;;;;5088251;28;20035;-75
2021/04/09 07:02:12;;;;;;;13.48;9.55;;;3.10;99.90;;;;;;5088329;28;20463;-75
2021/04/09 07:04:37;;;;;;;15.43;8.38;;;3.30;99.90;;;;;;5088512;28;20024;-74
2021/04/09 07:07:11;;;;;;;12.05;7.57;;;3.40;99.90;;;;;;5088257;28;20027;-75
2021/04/09 07:09:36;;;;;;;17.50;8.70;;;3.60;99.90;;;;;;5088212;28;20027;-75
2021/04/09 07:12:04;;;;;;;13.02;8.93;;;3.70;99.90;;;;;;5088552;28;20107;-75
2021/04/09 07:15:06;;;;;;;13.57;8.57;;;4.00;99.90;;;;;;5088027;28;20032;-75
2021/04/09 07:17:44;;;;;;;12.73;8.13;;;4.30;99.90;;;;;;5011362;28;20021;-75
2021/04/09 07:20:16;;;;;;;11.05;7.55;;;4.50;99.90;;;;;;5080099;28;20056;-75
2021/04/09 07:22:44;;;;;;;12.60;7.90;;;4.60;99.90;;;;;;5088561;28;20486;-75
2021/04/09 07:25:23;;;;;;;11.00;7.05;;;4.80;99.90;;;;;;5088744;28;20016;-75
2021/04/09 07:27:51;;;;;;;10.00;7.28;;;5.00;99.90;;;;;;5088176;28;20396;-75
2021/04/09 07:30:25;;;;;;;11.95;7.60;;;5.20;99.90;;;;;;5087997;28;20078;-75
2021/04/09 07:32:51;;;;;;;10.48;7.45;;;5.40;99.90;;;;;;5087897;28;20062;-75
2021/04/09 07:35:17;;;;;;;10.50;7.97;;;5.70;99.90;;;;;;5087825;28;20089;-73
2021/04/09 07:38:17;;;;;;;9.48;7.18;;;5.80;99.90;;;;;;5088148;28;20481;-74
2021/04/09 07:40:53;;;;;;;10.63;6.82;;;6.20;99.90;;;;;;5087817;28;20035;-75
2021/04/09 07:43:19;;;;;;;13.05;6.65;;;6.50;99.90;;;;;;5087961;28;20027;-74
2021/04/09 07:45:45;;;;;;;10.60;7.03;;;6.90;99.90;;;;;;5087963;28;20028;-74
2021/04/09 07:48:10;;;;;;;12.20;6.25;;;7.30;99.90;;;;;;5089361;28;20024;-76
2021/04/09 07:50:39;;;;;;;7.65;5.80;;;8.00;99.90;;;;;;5091847;28;20028;-75
2021/04/09 07:53:16;;;;;;;15.52;6.78;;;8.90;99.20;;;;;;5091695;28;20578;-75
2021/04/09 07:55:41;;;;;;;12.15;6.10;;;9.60;92.00;;;;;;5091551;28;20024;-75
2021/04/09 07:58:14;;;;;;;7.63;4.97;;;10.40;85.80;;;;;;5091605;28;20035;-75
2021/04/09 08:00:40;;;;;;;;;;;12.50;72.40;;;;;;5093210;28;20024;-75
2021/04/09 08:03:05;;;;;;;9.30;6.05;;;14.70;59.00;;;;;;5091436;28;19915;-75
2021/04/09 08:05:31;;;;;;;8.32;5.70;;;16.50;50.90;;;;;;5091255;28;20443;-76
2021/04/09 08:07:57;;;;;;;9.35;5.97;;;18.00;46.80;;;;;;5091361;28;20074;-75
2021/04/09 08:10:29;;;;;;;8.63;5.30;;;18.80;43.60;;;;;;5092570;28;20051;-75
2021/04/09 08:12:56;;;;;;;8.32;4.97;;;18.60;44.10;;;;;;5091336;28;20028;-76
2021/04/09 08:15:25;;;;;;;6.00;5.05;;;17.80;45.00;;;;;;5091018;28;20028;-75
2021/04/09 08:18:02;;;;;;;8.48;5.75;;;17.30;46.40;;;;;;5091066;28;20111;-76
2021/04/09 08:20:30;;;;;;;7.22;5.30;;;18.80;43.30;;;;;;5090965;28;20052;-76
2021/04/09 08:23:03;;;;;;;7.07;5.07;;;20.80;39.60;;;;;;5090902;28;20111;-74
2021/04/09 08:25:29;;;;;;;;;;;23.00;35.50;;;;;;5092441;28;20016;-74
2021/04/09 08:27:57;;;;;;;6.32;4.82;;;24.30;31.90;;;;;;5090937;28;19914;-75
2021/04/09 08:30:24;;;;;;;7.13;5.00;;;25.30;29.90;;;;;;5090986;28;20108;-74
2021/04/09 08:32:53;;;;;;;6.90;4.95;;;25.70;28.90;;;;;;5090707;28;20026;-75
2021/04/09 08:35:19;;;;;;;5.93;4.38;;;25.10;30.00;;;;;;5090817;28;20059;-75
2021/04/09 08:37:46;;;;;;;6.57;4.70;;;25.80;29.10;;;;;;5091015;28;20024;-76
2021/04/09 08:40:12;;;;;;;6.55;4.53;;;26.20;27.90;;;;;;5090634;28;20080;-75
2021/04/09 08:42:38;;;;;;;7.82;4.30;;;26.80;27.40;;;;;;5090798;28;20028;-74
2021/04/09 08:45:05;;;;;;;7.70;4.55;;;27.30;27.30;;;;;;5090469;28;20492;-75
2021/04/09 08:47:32;;;;;;;4.97;3.95;;;27.50;26.70;;;;;;5091630;28;20118;-75
2021/04/09 08:49:59;;;;;;;7.18;4.25;;;27.40;26.50;;;;;;5090409;28;20502;-74
2021/04/09 08:52:26;;;;;;;7.65;4.38;;;26.90;27.10;;;;;;5090558;28;20041;-75
2021/04/09 08:54:53;;;;;;;4.97;3.92;;;25.00;29.00;;;;;;5090382;28;20024;-75
2021/04/09 08:57:33;;;;;;;6.78;4.18;;;22.60;32.40;;;;;;5090343;28;20027;-75
2021/04/09 09:00:20;;;;;;;6.60;3.97;;;21.30;36.20;;;;;;5089125;28;20024;-75
2021/04/09 09:02:54;;;;;;;5.55;3.90;;;19.80;37.60;;;;;;5090253;28;20024;-75
2021/04/09 09:05:31;;;;;;;4.78;3.50;;;19.80;39.00;;;;;;5090141;28;20020;-75
2021/04/09 09:07:59;;;;;;;5.40;3.40;;;21.50;35.30;;;;;;5090209;28;20031;-75
2021/04/09 09:10:30;;;;;;;4.88;3.58;;;24.30;31.10;;;;;;5090091;28;20147;-75
2021/04/09 09:13:06;;;;;;;5.22;2.97;;;27.10;28.10;;;;;;5090133;28;20027;-75
2021/04/09 09:18:42;;;;;;;5.38;3.55;;;28.10;26.50;;;;;;5092156;28;20111;-75
2021/04/09 09:21:13;;;;;;;5.10;2.80;;;27.90;25.80;;;;;;5091253;28;20032;-75
2021/04/09 09:23:45;;;;;;;4.55;2.97;;;28.50;26.00;;;;;;5090198;28;20028;-75
2021/04/09 09:26:22;;;;;;;6.30;3.08;;;30.10;24.60;;;;;;5089917;28;20028;-75
2021/04/09 09:29:07;;;;;;;4.95;3.05;;;31.80;24.00;;;;;;5089712;28;20078;-75
2021/04/09 09:31:34;;;;;;;3.67;2.75;;;31.60;22.70;;;;;;5089827;28;20047;-75
2021/04/09 09:34:21;;;;;;;4.63;2.67;;;34.30;21.80;;;;;;5089722;28;20024;-75
2021/04/09 09:36:59;;;;;;;4.00;2.78;;;33.90;20.50;;;;;;5089924;28;20047;-75
2021/04/09 09:39:34;;;;;;;5.63;3.10;;;33.80;21.10;;;;;;5089868;28;20035;-75
2021/04/09 09:42:00;;;;;;;4.47;2.83;;;34.60;21.20;;;;;;5089847;28;20424;-75
2021/04/09 09:44:31;;;;;;;5.63;2.65;;;35.10;20.60;;;;;;5089562;28;20077;-75
2021/04/09 09:47:03;;;;;;;4.82;3.35;;;36.30;21.00;;;;;;5089508;28;20020;-75
2021/04/09 09:49:32;;;;;;;5.80;2.70;;;35.40;19.50;;;;;;5089349;28;20047;-77
2021/04/09 09:51:58;;;;;;;5.28;2.80;;;35.20;20.10;;;;;;5089307;28;20119;-75
2021/04/09 09:54:30;;;;;;;2.95;2.30;;;37.20;19.40;;;;;;5089438;28;20517;-75
2021/04/09 09:56:57;;;;;;;5.18;2.42;;;38.20;18.80;;;;;;5089692;28;20024;-76
2021/04/09 09:59:27;;;;;;;3.65;2.28;;;38.70;18.60;;;;;;5089575;28;20035;-76
2021/04/09 10:01:58;;;;;;;5.88;2.45;;;39.60;17.90;;;;;;5089121;28;20074;-75
2021/04/09 10:04:25;;;;;;;3.47;2.42;;;38.70;17.80;;;;;;5089949;28;20070;-75
2021/04/09 10:06:54;;;;;;;4.80;2.60;;;38.70;18.20;;;;;;5088929;28;20024;-76
2021/04/09 10:09:28;;;;;;;2.10;1.90;;;39.80;17.20;;;;;;5089475;28;20166;-76
2021/04/09 10:11:54;;;;;;;3.42;2.58;;;41.00;17.40;;;;;;5088701;28;20081;-76
2021/04/09 10:14:20;;;;;;;3.10;2.35;;;41.90;16.90;;;;;;5089124;28;20107;-76
2021/04/09 10:16:45;;;;;;;4.50;2.10;;;42.30;15.80;;;;;;5088767;28;20448;-75
2021/04/09 10:19:11;;;;;;;2.72;2.25;;;43.00;14.80;;;;;;5089067;28;20044;-76
2021/04/09 10:21:40;;;;;;;2.67;2.13;;;40.40;15.00;;;;;;5088841;28;20393;-75
2021/04/09 10:24:10;;;;;;;5.32;2.35;;;39.10;16.10;;;;;;5088672;28;20035;-75
2021/04/09 10:26:42;;;;;;;2.15;1.70;;;38.80;16.30;;;;;;5088519;28;20020;-75
2021/04/09 10:29:21;;;;;;;1.80;1.70;;;37.40;15.80;;;;;;5090107;28;20103;-75
2021/04/09 10:31:47;;;;;;;3.30;2.10;;;37.10;15.40;;;;;;5088453;28;20028;-75
2021/04/09 10:34:18;;;;;;;2.63;2.00;;;38.20;15.20;;;;;;5088437;28;20028;-75
2021/04/09 10:36:45;;;;;;;4.03;2.35;;;37.90;16.20;;;;;;5088305;28;20032;-76
2021/04/09 10:39:13;;;;;;;3.38;1.88;;;37.60;15.70;;;;;;5088384;28;20025;-75
2021/04/09 10:41:42;;;;;;;2.85;1.90;;;36.90;16.40;;;;;;5088373;28;20024;-75
2021/04/09 10:44:34;;;;;;;4.43;1.70;;;36.30;15.10;;;;;;5088327;28;20032;-75
2021/04/09 10:47:02;;;;;;;1.85;1.35;;;37.30;14.50;;;;;;5084512;28;20039;-75
2021/04/09 10:49:30;;;;;;;3.45;2.22;;;37.40;13.30;;;;;;5088247;28;20032;-75
2021/04/09 10:51:58;;;;;;;2.63;1.77;;;36.90;14.00;;;;;;5088142;28;20034;-75
2021/04/09 10:54:29;;;;;;;2.13;1.92;;;38.00;14.40;;;;;;5088413;28;20024;-75
2021/04/09 10:57:00;;;;;;;1.93;1.47;;;40.00;14.00;;;;;;5088249;28;20028;-75
2021/04/09 10:59:34;;;;;;;3.83;1.77;;;40.90;13.60;;;;;;5088113;28;20024;-75
2021/04/09 11:02:01;;;;;;;2.55;1.60;;;38.20;13.60;;;;;;5088357;28;20032;-75
2021/04/09 11:04:29;;;;;;;2.58;1.70;;;38.70;14.20;;;;;;5088872;28;20399;-76
2021/04/09 11:07:04;;;;;;;2.70;1.77;;;39.10;13.90;;;;;;5088447;28;20162;-76
2021/04/09 11:09:47;;;;;;;2.75;1.75;;;40.80;13.60;;;;;;5088291;28;20034;-75
2021/04/09 11:12:16;;;;;;;4.07;2.10;;;40.00;12.90;;;;;;5088936;28;20027;-76
2021/04/09 11:14:42;;;;;;;2.33;2.13;;;38.50;14.00;;;;;;5088480;28;20070;-75
2021/04/09 11:17:08;;;;;;;3.28;1.88;;;38.40;13.80;;;;;;5088497;28;20023;-75
2021/04/09 11:19:35;;;;;;;2.42;2.00;;;38.20;13.50;;;;;;5088398;28;20370;-76
2021/04/09 11:22:04;;;;;;;4.22;2.00;;;38.90;13.60;;;;;;5088287;28;20069;-75
2021/04/09 11:24:33;;;;;;;2.38;1.70;;;38.80;12.50;;;;;;5091805;28;20027;-75
2021/04/09 11:27:01;;;;;;;5.07;1.75;;;38.70;12.90;;;;;;5092170;28;20059;-75
2021/04/09 11:29:32;;;;;;;3.47;1.73;;;39.10;13.00;;;;;;5092175;28;20119;-75
2021/04/09 11:32:13;;;;;;;2.83;1.83;;;39.30;13.60;;;;;;5092236;28;20023;-75
2021/04/09 11:34:41;;;;;;;1.98;1.45;;;38.70;12.80;;;;;;5091886;28;20323;-75
2021/04/09 11:37:09;;;;;;;2.80;1.80;;;38.50;13.20;;;;;;5107988;22;20554;-75
2021/04/09 11:39:34;;;;;;;3.22;1.50;;;39.40;13.20;;;;;;5091852;28;20020;-75
2021/04/09 11:42:04;;;;;;;3.20;1.90;;;37.70;13.00;;;;;;5092070;28;20035;-74
2021/04/09 11:44:32;;;;;;;2.03;1.60;;;37.90;14.60;;;;;;5092045;28;20016;-74
2021/04/09 11:47:22;;;;;;;2.70;1.90;;;37.50;13.70;;;;;;5091620;28;20016;-75
2021/04/09 11:50:06;;;;;;;2.53;1.70;;;38.00;13.70;;;;;;5091582;28;20048;-75
2021/04/09 11:52:49;;;;;;;2.75;1.83;;;39.10;13.30;;;;;;5091739;28;20016;-74
2021/04/09 11:55:15;;;;;;;2.83;1.63;;;38.60;12.90;;;;;;5091533;28;20509;-75
2021/04/09 11:57:41;;;;;;;2.88;1.60;;;38.80;12.70;;;;;;5091377;28;20074;-75
2021/04/09 12:00:27;;;;;;;1.70;1.50;;;39.40;13.10;;;;;;5091347;28;20501;-75
2021/04/09 12:03:05;;;;;;;2.22;1.60;;;40.30;13.10;;;;;;5091498;28;20033;-75
2021/04/09 12:05:33;;;;;;;2.58;1.95;;;38.90;13.40;;;;;;5092234;28;20027;-75
2021/04/09 12:08:00;;;;;;;2.55;1.60;;;39.10;13.10;;;;;;5092986;28;20461;-75
2021/04/09 12:10:28;;;;;;;3.38;1.70;;;37.60;14.10;;;;;;5092011;28;20051;-75
2021/04/09 12:12:54;;;;;;;2.42;1.60;;;37.40;14.60;;;;;;5092429;28;20050;-74
2021/04/09 12:15:24;;;;;;;3.03;1.63;;;36.90;14.00;;;;;;5091767;28;20114;-75
2021/04/09 12:17:50;;;;;;;3.28;1.48;;;37.80;14.80;;;;;;5091899;28;20024;-75
2021/04/09 12:20:22;;;;;;;2.63;1.67;;;37.50;14.10;;;;;;5091913;28;20024;-74
2021/04/09 12:22:49;;;;;;;3.25;1.80;;;36.50;14.40;;;;;;5091640;28;20023;-75
2021/04/09 12:25:17;;;;;;;3.70;1.83;;;35.30;14.40;;;;;;5091251;28;20027;-75
2021/04/09 12:27:43;;;;;;;6.38;2.08;;;32.00;15.70;;;;;;5091546;28;20031;-74
2021/04/09 12:30:11;;;;;;;2.63;1.60;;;29.70;17.10;;;;;;5092708;28;20020;-74
2021/04/09 12:32:37;;;;;;;3.17;1.70;;;28.70;18.90;;;;;;5091098;28;20085;-74
2021/04/09 12:35:03;;;;;;;4.88;2.00;;;27.50;19.60;;;;;;5091542;28;20389;-75
2021/04/09 12:37:29;;;;;;;5.05;2.00;;;26.50;20.50;;;;;;5091248;28;20489;-75
2021/04/09 12:39:55;;;;;;;3.97;2.05;;;25.50;21.10;;;;;;5091000;28;20044;-74
2021/04/09 12:42:21;;;;;;;4.63;1.90;;;24.70;21.20;;;;;;5091119;28;20389;-74
2021/04/09 12:44:47;;;;;;;5.47;2.30;;;24.20;22.20;;;;;;5090851;28;20085;-74
2021/04/09 12:47:12;;;;;;;3.85;1.60;;;23.80;22.50;;;;;;5090754;28;20411;-75
2021/04/09 12:49:38;;;;;;;7.10;2.13;;;23.70;23.80;;;;;;5090922;28;20136;-74